Terminal Aerodrome Forecast
Issued by NWS

Home | Current Version | Previous Version | Text Only | Print | Product List | Glossary On
Versions: 1 2 3 4 5 6 7 8 9 10 11 12 13 14 15 16
000
FTUS43 KTOP 171100
TAFMHK
TAF
KMHK 171127Z 1712/1812 36007KT P6SM BKN100
      TEMPO 1712/1714 BKN020
     FM171700 04007KT P6SM BKN100
     FM172200 10005KT P6SM SKC=

USA.gov is the U.S. government's official web portal to all federal, state and local government web resources and services.